sensor_id;sensor_type;location;lat;lon;timestamp;P1;durP1;ratioP1;P2;durP2;ratioP2
16979;SDS011;42288;52.182;21.156;2024-03-22T00:00:14;52.50;;;24.23;;
16979;SDS011;42288;52.182;21.156;2024-03-22T00:02:40;59.87;;;29.40;;
16979;SDS011;42288;52.182;21.156;2024-03-22T00:05:06;66.00;;;28.73;;
16979;SDS011;42288;52.182;21.156;2024-03-22T00:07:34;54.40;;;27.00;;
16979;SDS011;42288;52.182;21.156;2024-03-22T00:10:01;57.20;;;26.47;;
16979;SDS011;42288;52.182;21.156;2024-03-22T00:12:27;56.43;;;28.50;;
16979;SDS011;42288;52.182;21.156;2024-03-22T00:14:52;51.63;;;24.50;;
16979;SDS011;42288;52.182;21.156;2024-03-22T00:17:19;65.33;;;26.13;;
16979;SDS011;42288;52.182;21.156;2024-03-22T00:19:45;58.33;;;26.93;;
16979;SDS011;42288;52.182;21.156;2024-03-22T00:22:11;72.37;;;29.90;;
16979;SDS011;42288;52.182;21.156;2024-03-22T00:24:36;60.23;;;29.40;;
16979;SDS011;42288;52.182;21.156;2024-03-22T00:27:02;63.80;;;28.30;;
16979;SDS011;42288;52.182;21.156;2024-03-22T00:29:27;55.37;;;27.23;;
16979;SDS011;42288;52.182;21.156;2024-03-22T00:31:53;64.90;;;30.10;;
16979;SDS011;42288;52.182;21.156;2024-03-22T00:34:19;67.53;;;31.43;;
16979;SDS011;42288;52.182;21.156;2024-03-22T00:36:44;64.57;;;30.17;;
16979;SDS011;42288;52.182;21.156;2024-03-22T00:39:10;76.07;;;30.23;;
16979;SDS011;42288;52.182;21.156;2024-03-22T00:41:37;70.97;;;28.03;;
16979;SDS011;42288;52.182;21.156;2024-03-22T00:44:04;65.07;;;28.17;;
16979;SDS011;42288;52.182;21.156;2024-03-22T00:46:29;61.30;;;25.93;;
16979;SDS011;42288;52.182;21.156;2024-03-22T00:48:55;65.13;;;30.50;;
16979;SDS011;42288;52.182;21.156;2024-03-22T00:51:20;67.90;;;29.90;;
16979;SDS011;42288;52.182;21.156;2024-03-22T00:53:47;64.03;;;28.17;;
16979;SDS011;42288;52.182;21.156;2024-03-22T00:56:12;64.63;;;28.70;;
16979;SDS011;42288;52.182;21.156;2024-03-22T00:58:38;64.30;;;30.23;;
16979;SDS011;42288;52.182;21.156;2024-03-22T01:01:03;60.27;;;28.70;;
16979;SDS011;42288;52.182;21.156;2024-03-22T01:03:29;65.17;;;28.60;;
16979;SDS011;42288;52.182;21.156;2024-03-22T01:05:54;59.10;;;29.10;;
16979;SDS011;42288;52.182;21.156;2024-03-22T01:08:22;61.27;;;28.93;;
16979;SDS011;42288;52.182;21.156;2024-03-22T01:10:47;67.37;;;31.53;;
16979;SDS011;42288;52.182;21.156;2024-03-22T01:13:13;67.77;;;31.87;;
16979;SDS011;42288;52.182;21.156;2024-03-22T01:15:39;63.20;;;28.43;;
16979;SDS011;42288;52.182;21.156;2024-03-22T01:18:05;60.97;;;27.67;;
16979;SDS011;42288;52.182;21.156;2024-03-22T01:20:30;67.87;;;30.83;;
16979;SDS011;42288;52.182;21.156;2024-03-22T01:22:56;63.60;;;29.10;;
16979;SDS011;42288;52.182;21.156;2024-03-22T01:25:21;50.83;;;26.43;;
16979;SDS011;42288;52.182;21.156;2024-03-22T01:27:47;70.43;;;31.23;;
16979;SDS011;42288;52.182;21.156;2024-03-22T01:30:13;70.07;;;31.47;;
16979;SDS011;42288;52.182;21.156;2024-03-22T01:32:38;62.77;;;29.73;;
16979;SDS011;42288;52.182;21.156;2024-03-22T01:35:04;58.50;;;27.60;;
16979;SDS011;42288;52.182;21.156;2024-03-22T01:37:30;63.07;;;28.23;;
16979;SDS011;42288;52.182;21.156;2024-03-22T01:39:56;62.07;;;28.20;;
16979;SDS011;42288;52.182;21.156;2024-03-22T01:42:21;63.83;;;29.50;;
16979;SDS011;42288;52.182;21.156;2024-03-22T01:44:48;64.17;;;28.97;;
16979;SDS011;42288;52.182;21.156;2024-03-22T01:47:14;60.80;;;29.57;;
16979;SDS011;42288;52.182;21.156;2024-03-22T01:49:41;61.97;;;30.10;;
16979;SDS011;42288;52.182;21.156;2024-03-22T01:52:06;62.67;;;29.37;;
16979;SDS011;42288;52.182;21.156;2024-03-22T01:54:32;65.30;;;32.23;;
16979;SDS011;42288;52.182;21.156;2024-03-22T01:56:58;60.13;;;29.80;;
16979;SDS011;42288;52.182;21.156;2024-03-22T01:59:24;65.10;;;30.20;;
16979;SDS011;42288;52.182;21.156;2024-03-22T02:01:50;67.70;;;30.63;;
16979;SDS011;42288;52.182;21.156;2024-03-22T02:04:15;59.03;;;28.53;;
16979;SDS011;42288;52.182;21.156;2024-03-22T02:06:41;63.23;;;30.17;;
16979;SDS011;42288;52.182;21.156;2024-03-22T02:09:06;71.20;;;30.97;;
16979;SDS011;42288;52.182;21.156;2024-03-22T02:11:34;68.90;;;30.13;;
16979;SDS011;42288;52.182;21.156;2024-03-22T02:14:02;63.63;;;31.60;;
16979;SDS011;42288;52.182;21.156;2024-03-22T02:16:29;81.43;;;36.23;;
16979;SDS011;42288;52.182;21.156;2024-03-22T02:18:54;74.83;;;35.50;;
16979;SDS011;42288;52.182;21.156;2024-03-22T02:21:20;88.47;;;39.17;;
16979;SDS011;42288;52.182;21.156;2024-03-22T02:23:45;107.13;;;45.97;;
16979;SDS011;42288;52.182;21.156;2024-03-22T02:26:11;87.80;;;39.77;;
16979;SDS011;42288;52.182;21.156;2024-03-22T02:28:37;93.13;;;39.90;;
16979;SDS011;42288;52.182;21.156;2024-03-22T02:31:02;93.17;;;41.60;;
16979;SDS011;42288;52.182;21.156;2024-03-22T02:33:29;95.50;;;40.00;;
16979;SDS011;42288;52.182;21.156;2024-03-22T02:35:55;97.53;;;44.77;;
16979;SDS011;42288;52.182;21.156;2024-03-22T02:38:21;144.03;;;50.90;;
16979;SDS011;42288;52.182;21.156;2024-03-22T02:40:47;106.43;;;41.87;;
16979;SDS011;42288;52.182;21.156;2024-03-22T02:43:13;112.70;;;40.53;;
16979;SDS011;42288;52.182;21.156;2024-03-22T02:45:39;122.47;;;45.33;;
16979;SDS011;42288;52.182;21.156;2024-03-22T02:48:06;135.37;;;51.63;;
16979;SDS011;42288;52.182;21.156;2024-03-22T02:50:35;119.50;;;43.43;;
16979;SDS011;42288;52.182;21.156;2024-03-22T02:53:02;106.37;;;42.83;;
16979;SDS011;42288;52.182;21.156;2024-03-22T02:55:28;117.17;;;42.40;;
16979;SDS011;42288;52.182;21.156;2024-03-22T02:57:55;110.00;;;40.93;;
16979;SDS011;42288;52.182;21.156;2024-03-22T03:00:21;102.50;;;44.13;;
16979;SDS011;42288;52.182;21.156;2024-03-22T03:02:47;143.17;;;48.47;;
16979;SDS011;42288;52.182;21.156;2024-03-22T03:05:13;115.60;;;45.17;;
16979;SDS011;42288;52.182;21.156;2024-03-22T03:07:39;94.00;;;42.37;;
16979;SDS011;42288;52.182;21.156;2024-03-22T03:10:05;128.10;;;46.23;;
16979;SDS011;42288;52.182;21.156;2024-03-22T03:12:31;109.97;;;43.80;;
16979;SDS011;42288;52.182;21.156;2024-03-22T03:14:57;112.00;;;41.67;;
16979;SDS011;42288;52.182;21.156;2024-03-22T03:17:23;127.07;;;47.30;;
16979;SDS011;42288;52.182;21.156;2024-03-22T03:19:48;115.37;;;44.70;;
16979;SDS011;42288;52.182;21.156;2024-03-22T03:22:14;104.27;;;42.83;;
16979;SDS011;42288;52.182;21.156;2024-03-22T03:24:40;101.27;;;40.57;;
16979;SDS011;42288;52.182;21.156;2024-03-22T03:27:05;105.47;;;40.57;;
16979;SDS011;42288;52.182;21.156;2024-03-22T03:29:32;107.40;;;40.43;;
16979;SDS011;42288;52.182;21.156;2024-03-22T03:31:57;98.70;;;39.27;;
16979;SDS011;42288;52.182;21.156;2024-03-22T03:34:23;106.13;;;40.63;;
16979;SDS011;42288;52.182;21.156;2024-03-22T03:36:48;95.73;;;39.33;;
16979;SDS011;42288;52.182;21.156;2024-03-22T03:39:14;123.87;;;44.70;;
16979;SDS011;42288;52.182;21.156;2024-03-22T03:41:39;109.17;;;41.57;;
16979;SDS011;42288;52.182;21.156;2024-03-22T03:44:05;107.17;;;43.07;;
16979;SDS011;42288;52.182;21.156;2024-03-22T03:46:31;107.67;;;43.57;;
16979;SDS011;42288;52.182;21.156;2024-03-22T03:48:56;136.20;;;46.67;;
16979;SDS011;42288;52.182;21.156;2024-03-22T03:51:23;151.87;;;46.53;;
16979;SDS011;42288;52.182;21.156;2024-03-22T03:53:49;147.83;;;50.70;;
16979;SDS011;42288;52.182;21.156;2024-03-22T03:56:14;165.20;;;52.37;;
16979;SDS011;42288;52.182;21.156;2024-03-22T03:58:40;121.13;;;46.93;;
16979;SDS011;42288;52.182;21.156;2024-03-22T04:01:06;130.20;;;48.20;;
16979;SDS011;42288;52.182;21.156;2024-03-22T04:03:32;131.77;;;48.83;;
16979;SDS011;42288;52.182;21.156;2024-03-22T04:05:58;122.37;;;45.40;;
16979;SDS011;42288;52.182;21.156;2024-03-22T04:08:25;119.67;;;46.07;;
16979;SDS011;42288;52.182;21.156;2024-03-22T04:10:54;113.13;;;39.57;;
16979;SDS011;42288;52.182;21.156;2024-03-22T04:13:24;87.63;;;37.03;;
16979;SDS011;42288;52.182;21.156;2024-03-22T04:15:50;94.33;;;35.40;;
16979;SDS011;42288;52.182;21.156;2024-03-22T04:18:16;86.17;;;31.97;;
16979;SDS011;42288;52.182;21.156;2024-03-22T04:20:41;89.70;;;35.40;;
16979;SDS011;42288;52.182;21.156;2024-03-22T04:23:08;97.13;;;36.77;;
16979;SDS011;42288;52.182;21.156;2024-03-22T04:25:35;99.47;;;39.33;;
16979;SDS011;42288;52.182;21.156;2024-03-22T04:28:01;103.20;;;40.13;;
16979;SDS011;42288;52.182;21.156;2024-03-22T04:30:27;118.43;;;41.53;;
16979;SDS011;42288;52.182;21.156;2024-03-22T04:32:52;106.43;;;39.67;;
16979;SDS011;42288;52.182;21.156;2024-03-22T04:35:18;97.07;;;36.50;;
16979;SDS011;42288;52.182;21.156;2024-03-22T04:37:44;107.37;;;39.17;;
16979;SDS011;42288;52.182;21.156;2024-03-22T04:40:09;97.07;;;36.43;;
16979;SDS011;42288;52.182;21.156;2024-03-22T04:42:35;96.87;;;38.03;;
16979;SDS011;42288;52.182;21.156;2024-03-22T04:45:01;90.50;;;35.17;;
16979;SDS011;42288;52.182;21.156;2024-03-22T04:47:27;97.47;;;37.47;;
16979;SDS011;42288;52.182;21.156;2024-03-22T04:49:52;83.67;;;34.60;;
16979;SDS011;42288;52.182;21.156;2024-03-22T04:52:18;94.43;;;36.50;;
16979;SDS011;42288;52.182;21.156;2024-03-22T04:54:44;95.10;;;37.13;;
16979;SDS011;42288;52.182;21.156;2024-03-22T04:57:10;91.33;;;36.73;;
16979;SDS011;42288;52.182;21.156;2024-03-22T04:59:35;88.43;;;32.70;;
16979;SDS011;42288;52.182;21.156;2024-03-22T05:02:01;77.37;;;29.37;;
16979;SDS011;42288;52.182;21.156;2024-03-22T05:04:26;81.00;;;29.93;;
16979;SDS011;42288;52.182;21.156;2024-03-22T05:06:52;78.43;;;30.40;;
16979;SDS011;42288;52.182;21.156;2024-03-22T05:09:17;79.90;;;31.67;;
16979;SDS011;42288;52.182;21.156;2024-03-22T05:11:44;78.83;;;31.63;;
16979;SDS011;42288;52.182;21.156;2024-03-22T05:14:14;90.43;;;32.17;;
16979;SDS011;42288;52.182;21.156;2024-03-22T05:16:40;86.73;;;31.80;;
16979;SDS011;42288;52.182;21.156;2024-03-22T05:19:06;92.57;;;33.73;;
16979;SDS011;42288;52.182;21.156;2024-03-22T05:21:31;81.53;;;31.80;;
16979;SDS011;42288;52.182;21.156;2024-03-22T05:23:58;78.70;;;29.13;;
16979;SDS011;42288;52.182;21.156;2024-03-22T05:26:23;74.27;;;29.93;;
16979;SDS011;42288;52.182;21.156;2024-03-22T05:28:49;77.23;;;31.80;;
16979;SDS011;42288;52.182;21.156;2024-03-22T05:31:14;83.67;;;31.57;;
16979;SDS011;42288;52.182;21.156;2024-03-22T05:33:40;69.93;;;30.07;;
16979;SDS011;42288;52.182;21.156;2024-03-22T05:36:06;76.87;;;29.40;;
16979;SDS011;42288;52.182;21.156;2024-03-22T05:38:32;82.87;;;30.33;;
16979;SDS011;42288;52.182;21.156;2024-03-22T05:40:57;78.77;;;29.93;;
16979;SDS011;42288;52.182;21.156;2024-03-22T05:43:23;81.23;;;31.70;;
16979;SDS011;42288;52.182;21.156;2024-03-22T05:45:48;72.10;;;29.80;;
16979;SDS011;42288;52.182;21.156;2024-03-22T05:48:14;72.47;;;29.27;;
16979;SDS011;42288;52.182;21.156;2024-03-22T05:50:40;78.30;;;30.13;;
16979;SDS011;42288;52.182;21.156;2024-03-22T05:53:05;82.53;;;30.33;;
16979;SDS011;42288;52.182;21.156;2024-03-22T05:55:31;84.07;;;33.47;;
16979;SDS011;42288;52.182;21.156;2024-03-22T05:57:57;78.63;;;29.97;;
16979;SDS011;42288;52.182;21.156;2024-03-22T06:00:23;86.00;;;31.30;;
16979;SDS011;42288;52.182;21.156;2024-03-22T06:02:48;69.10;;;29.47;;
16979;SDS011;42288;52.182;21.156;2024-03-22T06:05:14;69.93;;;28.93;;
16979;SDS011;42288;52.182;21.156;2024-03-22T06:07:39;79.00;;;29.00;;
16979;SDS011;42288;52.182;21.156;2024-03-22T06:10:07;59.10;;;24.43;;
16979;SDS011;42288;52.182;21.156;2024-03-22T06:12:35;63.87;;;26.90;;
16979;SDS011;42288;52.182;21.156;2024-03-22T06:15:01;71.10;;;29.07;;
16979;SDS011;42288;52.182;21.156;2024-03-22T06:17:26;68.43;;;27.03;;
16979;SDS011;42288;52.182;21.156;2024-03-22T06:19:52;72.87;;;28.10;;
16979;SDS011;42288;52.182;21.156;2024-03-22T06:22:17;71.17;;;26.03;;
16979;SDS011;42288;52.182;21.156;2024-03-22T06:24:44;57.83;;;25.67;;
16979;SDS011;42288;52.182;21.156;2024-03-22T06:27:09;65.30;;;24.77;;
16979;SDS011;42288;52.182;21.156;2024-03-22T06:29:35;63.80;;;25.67;;
16979;SDS011;42288;52.182;21.156;2024-03-22T06:32:01;63.23;;;26.50;;
16979;SDS011;42288;52.182;21.156;2024-03-22T06:34:26;69.23;;;26.53;;
16979;SDS011;42288;52.182;21.156;2024-03-22T06:36:52;60.20;;;26.93;;
16979;SDS011;42288;52.182;21.156;2024-03-22T06:39:17;61.33;;;24.93;;
16979;SDS011;42288;52.182;21.156;2024-03-22T06:41:44;66.03;;;28.70;;
16979;SDS011;42288;52.182;21.156;2024-03-22T06:44:10;66.23;;;30.30;;
16979;SDS011;42288;52.182;21.156;2024-03-22T06:46:37;71.03;;;29.97;;
16979;SDS011;42288;52.182;21.156;2024-03-22T06:49:02;70.17;;;28.83;;
16979;SDS011;42288;52.182;21.156;2024-03-22T06:51:28;63.30;;;27.60;;
16979;SDS011;42288;52.182;21.156;2024-03-22T06:53:53;73.53;;;28.67;;
16979;SDS011;42288;52.182;21.156;2024-03-22T06:56:19;67.57;;;27.70;;
16979;SDS011;42288;52.182;21.156;2024-03-22T06:58:45;64.20;;;26.30;;
16979;SDS011;42288;52.182;21.156;2024-03-22T07:01:11;66.83;;;26.20;;
16979;SDS011;42288;52.182;21.156;2024-03-22T07:03:37;69.63;;;28.03;;
16979;SDS011;42288;52.182;21.156;2024-03-22T07:06:02;72.57;;;28.87;;
16979;SDS011;42288;52.182;21.156;2024-03-22T07:08:29;68.83;;;30.40;;
16979;SDS011;42288;52.182;21.156;2024-03-22T07:10:54;64.37;;;27.40;;
16979;SDS011;42288;52.182;21.156;2024-03-22T07:13:20;66.33;;;28.90;;
16979;SDS011;42288;52.182;21.156;2024-03-22T07:15:46;76.43;;;28.03;;
16979;SDS011;42288;52.182;21.156;2024-03-22T07:18:12;69.57;;;27.83;;
16979;SDS011;42288;52.182;21.156;2024-03-22T07:20:39;64.47;;;27.73;;
16979;SDS011;42288;52.182;21.156;2024-03-22T07:23:04;65.13;;;27.10;;
16979;SDS011;42288;52.182;21.156;2024-03-22T07:25:30;63.03;;;26.67;;
16979;SDS011;42288;52.182;21.156;2024-03-22T07:27:56;59.33;;;26.57;;
16979;SDS011;42288;52.182;21.156;2024-03-22T07:30:22;67.30;;;27.40;;
16979;SDS011;42288;52.182;21.156;2024-03-22T07:32:47;61.83;;;27.17;;
16979;SDS011;42288;52.182;21.156;2024-03-22T07:35:13;64.83;;;27.87;;
16979;SDS011;42288;52.182;21.156;2024-03-22T07:37:39;62.73;;;25.40;;
16979;SDS011;42288;52.182;21.156;2024-03-22T07:40:04;61.13;;;26.33;;
16979;SDS011;42288;52.182;21.156;2024-03-22T07:42:30;56.03;;;23.70;;
16979;SDS011;42288;52.182;21.156;2024-03-22T07:44:56;55.93;;;23.33;;
16979;SDS011;42288;52.182;21.156;2024-03-22T07:47:22;62.80;;;24.67;;
16979;SDS011;42288;52.182;21.156;2024-03-22T07:49:47;56.00;;;25.07;;
16979;SDS011;42288;52.182;21.156;2024-03-22T07:52:13;54.60;;;24.10;;
16979;SDS011;42288;52.182;21.156;2024-03-22T07:54:39;62.60;;;25.47;;
16979;SDS011;42288;52.182;21.156;2024-03-22T07:57:04;52.73;;;23.33;;
16979;SDS011;42288;52.182;21.156;2024-03-22T07:59:30;51.03;;;23.07;;
16979;SDS011;42288;52.182;21.156;2024-03-22T08:01:55;50.93;;;22.03;;
16979;SDS011;42288;52.182;21.156;2024-03-22T08:04:22;49.80;;;22.00;;
16979;SDS011;42288;52.182;21.156;2024-03-22T08:06:50;49.73;;;22.13;;
16979;SDS011;42288;52.182;21.156;2024-03-22T08:09:15;53.73;;;22.67;;
16979;SDS011;42288;52.182;21.156;2024-03-22T08:11:42;43.73;;;20.63;;
16979;SDS011;42288;52.182;21.156;2024-03-22T08:14:08;47.53;;;21.20;;
16979;SDS011;42288;52.182;21.156;2024-03-22T08:16:34;55.87;;;24.03;;
16979;SDS011;42288;52.182;21.156;2024-03-22T08:18:59;44.50;;;19.63;;
16979;SDS011;42288;52.182;21.156;2024-03-22T08:21:25;49.67;;;21.13;;
16979;SDS011;42288;52.182;21.156;2024-03-22T08:23:50;48.97;;;20.13;;
16979;SDS011;42288;52.182;21.156;2024-03-22T08:26:17;53.33;;;21.60;;
16979;SDS011;42288;52.182;21.156;2024-03-22T08:28:42;57.70;;;23.57;;
16979;SDS011;42288;52.182;21.156;2024-03-22T08:31:08;45.83;;;18.83;;
16979;SDS011;42288;52.182;21.156;2024-03-22T08:33:34;48.30;;;20.93;;
16979;SDS011;42288;52.182;21.156;2024-03-22T08:36:00;41.07;;;18.57;;
16979;SDS011;42288;52.182;21.156;2024-03-22T08:38:26;40.93;;;19.97;;
16979;SDS011;42288;52.182;21.156;2024-03-22T08:40:52;46.70;;;19.30;;
16979;SDS011;42288;52.182;21.156;2024-03-22T08:43:17;40.60;;;19.00;;
16979;SDS011;42288;52.182;21.156;2024-03-22T08:45:43;40.07;;;18.67;;
16979;SDS011;42288;52.182;21.156;2024-03-22T08:48:08;44.20;;;19.40;;
16979;SDS011;42288;52.182;21.156;2024-03-22T08:50:34;38.90;;;18.70;;
16979;SDS011;42288;52.182;21.156;2024-03-22T08:53:00;43.37;;;19.43;;
16979;SDS011;42288;52.182;21.156;2024-03-22T08:55:29;37.63;;;16.73;;
16979;SDS011;42288;52.182;21.156;2024-03-22T08:57:55;47.13;;;21.87;;
16979;SDS011;42288;52.182;21.156;2024-03-22T09:00:20;53.10;;;22.90;;
16979;SDS011;42288;52.182;21.156;2024-03-22T09:02:46;47.77;;;22.13;;
16979;SDS011;42288;52.182;21.156;2024-03-22T09:05:12;52.43;;;24.80;;
16979;SDS011;42288;52.182;21.156;2024-03-22T09:07:37;51.90;;;22.83;;
16979;SDS011;42288;52.182;21.156;2024-03-22T09:10:03;38.30;;;19.73;;
16979;SDS011;42288;52.182;21.156;2024-03-22T09:12:30;39.47;;;20.57;;
16979;SDS011;42288;52.182;21.156;2024-03-22T09:14:55;45.53;;;19.83;;
16979;SDS011;42288;52.182;21.156;2024-03-22T09:17:21;36.43;;;17.73;;
16979;SDS011;42288;52.182;21.156;2024-03-22T09:19:46;45.77;;;20.03;;
16979;SDS011;42288;52.182;21.156;2024-03-22T09:22:12;37.70;;;18.57;;
16979;SDS011;42288;52.182;21.156;2024-03-22T09:24:38;40.63;;;19.00;;
16979;SDS011;42288;52.182;21.156;2024-03-22T09:27:03;36.73;;;18.00;;
16979;SDS011;42288;52.182;21.156;2024-03-22T09:29:33;30.93;;;15.97;;
16979;SDS011;42288;52.182;21.156;2024-03-22T09:31:59;35.23;;;16.03;;
16979;SDS011;42288;52.182;21.156;2024-03-22T09:34:24;33.70;;;15.20;;
16979;SDS011;42288;52.182;21.156;2024-03-22T09:36:50;33.73;;;15.93;;
16979;SDS011;42288;52.182;21.156;2024-03-22T09:39:16;32.53;;;15.90;;
16979;SDS011;42288;52.182;21.156;2024-03-22T09:41:44;27.20;;;14.80;;
16979;SDS011;42288;52.182;21.156;2024-03-22T09:44:13;34.83;;;16.60;;
16979;SDS011;42288;52.182;21.156;2024-03-22T09:46:40;32.57;;;15.57;;
16979;SDS011;42288;52.182;21.156;2024-03-22T09:49:07;30.43;;;14.73;;
16979;SDS011;42288;52.182;21.156;2024-03-22T09:51:37;29.83;;;15.07;;
16979;SDS011;42288;52.182;21.156;2024-03-22T09:54:03;30.90;;;14.87;;
16979;SDS011;42288;52.182;21.156;2024-03-22T09:56:30;29.53;;;14.87;;
16979;SDS011;42288;52.182;21.156;2024-03-22T09:58:56;28.10;;;13.30;;
16979;SDS011;42288;52.182;21.156;2024-03-22T10:01:23;30.90;;;15.57;;
16979;SDS011;42288;52.182;21.156;2024-03-22T10:03:51;32.20;;;15.63;;
16979;SDS011;42288;52.182;21.156;2024-03-22T10:06:17;31.27;;;15.50;;
16979;SDS011;42288;52.182;21.156;2024-03-22T10:08:44;31.10;;;15.03;;
16979;SDS011;42288;52.182;21.156;2024-03-22T10:11:10;34.30;;;16.27;;
16979;SDS011;42288;52.182;21.156;2024-03-22T10:13:35;28.70;;;14.40;;
16979;SDS011;42288;52.182;21.156;2024-03-22T10:16:01;29.90;;;13.80;;
16979;SDS011;42288;52.182;21.156;2024-03-22T10:18:27;30.93;;;15.27;;
16979;SDS011;42288;52.182;21.156;2024-03-22T10:21:03;36.37;;;15.73;;
16979;SDS011;42288;52.182;21.156;2024-03-22T10:23:30;34.17;;;16.00;;
16979;SDS011;42288;52.182;21.156;2024-03-22T10:25:59;38.50;;;17.57;;
16979;SDS011;42288;52.182;21.156;2024-03-22T10:28:25;33.20;;;16.23;;
16979;SDS011;42288;52.182;21.156;2024-03-22T10:30:51;31.67;;;16.37;;
16979;SDS011;42288;52.182;21.156;2024-03-22T10:33:21;30.37;;;16.20;;
16979;SDS011;42288;52.182;21.156;2024-03-22T10:35:54;37.77;;;15.97;;
16979;SDS011;42288;52.182;21.156;2024-03-22T10:38:20;38.70;;;17.83;;
16979;SDS011;42288;52.182;21.156;2024-03-22T10:40:46;40.30;;;17.97;;
16979;SDS011;42288;52.182;21.156;2024-03-22T10:43:16;41.63;;;18.10;;
16979;SDS011;42288;52.182;21.156;2024-03-22T10:45:42;36.77;;;15.57;;
16979;SDS011;42288;52.182;21.156;2024-03-22T10:48:09;41.53;;;17.87;;
16979;SDS011;42288;52.182;21.156;2024-03-22T10:50:38;38.17;;;17.73;;
16979;SDS011;42288;52.182;21.156;2024-03-22T10:53:14;33.57;;;15.70;;
16979;SDS011;42288;52.182;21.156;2024-03-22T10:55:44;29.47;;;15.40;;
16979;SDS011;42288;52.182;21.156;2024-03-22T10:58:15;37.83;;;17.30;;
16979;SDS011;42288;52.182;21.156;2024-03-22T11:00:42;38.53;;;17.03;;
16979;SDS011;42288;52.182;21.156;2024-03-22T11:03:09;36.13;;;16.10;;
16979;SDS011;42288;52.182;21.156;2024-03-22T11:05:34;30.17;;;14.90;;
16979;SDS011;42288;52.182;21.156;2024-03-22T11:08:22;37.80;;;16.87;;
16979;SDS011;42288;52.182;21.156;2024-03-22T11:10:49;34.57;;;17.37;;
16979;SDS011;42288;52.182;21.156;2024-03-22T11:13:15;33.07;;;15.70;;
16979;SDS011;42288;52.182;21.156;2024-03-22T11:15:42;34.47;;;16.83;;
16979;SDS011;42288;52.182;21.156;2024-03-22T11:18:08;30.77;;;15.57;;
16979;SDS011;42288;52.182;21.156;2024-03-22T11:20:35;29.57;;;14.97;;
16979;SDS011;42288;52.182;21.156;2024-03-22T11:23:03;33.33;;;15.20;;
16979;SDS011;42288;52.182;21.156;2024-03-22T11:25:31;39.37;;;16.00;;
16979;SDS011;42288;52.182;21.156;2024-03-22T11:27:57;29.30;;;15.00;;
16979;SDS011;42288;52.182;21.156;2024-03-22T11:30:26;31.63;;;15.37;;
16979;SDS011;42288;52.182;21.156;2024-03-22T11:32:56;31.07;;;15.17;;
16979;SDS011;42288;52.182;21.156;2024-03-22T11:35:22;27.77;;;14.53;;
16979;SDS011;42288;52.182;21.156;2024-03-22T11:37:49;33.03;;;14.53;;
16979;SDS011;42288;52.182;21.156;2024-03-22T11:40:15;32.03;;;15.07;;
16979;SDS011;42288;52.182;21.156;2024-03-22T11:42:41;30.40;;;16.67;;
16979;SDS011;42288;52.182;21.156;2024-03-22T11:45:15;30.47;;;15.37;;
16979;SDS011;42288;52.182;21.156;2024-03-22T11:47:42;28.43;;;15.80;;
16979;SDS011;42288;52.182;21.156;2024-03-22T11:50:09;39.00;;;17.07;;
16979;SDS011;42288;52.182;21.156;2024-03-22T11:52:39;30.37;;;15.87;;
16979;SDS011;42288;52.182;21.156;2024-03-22T11:55:09;28.93;;;15.67;;
16979;SDS011;42288;52.182;21.156;2024-03-22T11:57:35;34.37;;;16.53;;
16979;SDS011;42288;52.182;21.156;2024-03-22T12:00:02;29.97;;;15.33;;
16979;SDS011;42288;52.182;21.156;2024-03-22T12:02:33;31.17;;;16.67;;
16979;SDS011;42288;52.182;21.156;2024-03-22T12:05:01;30.03;;;15.27;;
16979;SDS011;42288;52.182;21.156;2024-03-22T12:07:28;29.03;;;14.90;;
16979;SDS011;42288;52.182;21.156;2024-03-22T12:09:53;33.23;;;15.57;;
16979;SDS011;42288;52.182;21.156;2024-03-22T12:12:20;30.63;;;14.57;;
16979;SDS011;42288;52.182;21.156;2024-03-22T12:14:47;28.40;;;14.83;;
16979;SDS011;42288;52.182;21.156;2024-03-22T12:17:15;34.13;;;16.30;;
16979;SDS011;42288;52.182;21.156;2024-03-22T12:19:41;28.73;;;14.80;;
16979;SDS011;42288;52.182;21.156;2024-03-22T12:22:06;27.20;;;15.00;;
16979;SDS011;42288;52.182;21.156;2024-03-22T12:24:32;26.30;;;14.37;;
16979;SDS011;42288;52.182;21.156;2024-03-22T12:26:57;28.77;;;15.00;;
16979;SDS011;42288;52.182;21.156;2024-03-22T12:29:23;27.50;;;13.80;;
16979;SDS011;42288;52.182;21.156;2024-03-22T12:31:49;25.50;;;12.83;;
16979;SDS011;42288;52.182;21.156;2024-03-22T12:34:15;25.37;;;12.73;;
16979;SDS011;42288;52.182;21.156;2024-03-22T12:36:41;27.00;;;12.77;;
16979;SDS011;42288;52.182;21.156;2024-03-22T12:39:07;23.50;;;12.03;;
16979;SDS011;42288;52.182;21.156;2024-03-22T12:41:33;25.33;;;13.90;;
16979;SDS011;42288;52.182;21.156;2024-03-22T12:43:59;28.67;;;13.80;;
16979;SDS011;42288;52.182;21.156;2024-03-22T12:46:25;24.77;;;12.40;;
16979;SDS011;42288;52.182;21.156;2024-03-22T12:48:52;26.60;;;14.70;;
16979;SDS011;42288;52.182;21.156;2024-03-22T12:51:18;27.33;;;13.77;;
16979;SDS011;42288;52.182;21.156;2024-03-22T12:53:44;25.80;;;13.10;;
16979;SDS011;42288;52.182;21.156;2024-03-22T12:56:09;24.07;;;13.20;;
16979;SDS011;42288;52.182;21.156;2024-03-22T12:58:36;28.50;;;12.63;;
16979;SDS011;42288;52.182;21.156;2024-03-22T13:01:02;20.07;;;10.90;;
16979;SDS011;42288;52.182;21.156;2024-03-22T13:03:28;24.53;;;11.50;;
16979;SDS011;42288;52.182;21.156;2024-03-22T13:05:54;25.40;;;11.43;;
16979;SDS011;42288;52.182;21.156;2024-03-22T13:08:20;18.77;;;11.73;;
16979;SDS011;42288;52.182;21.156;2024-03-22T13:10:46;20.10;;;11.33;;
16979;SDS011;42288;52.182;21.156;2024-03-22T13:13:13;23.13;;;11.67;;
16979;SDS011;42288;52.182;21.156;2024-03-22T13:15:41;24.00;;;10.80;;
16979;SDS011;42288;52.182;21.156;2024-03-22T13:18:10;23.20;;;11.73;;
16979;SDS011;42288;52.182;21.156;2024-03-22T13:20:35;21.07;;;9.50;;
16979;SDS011;42288;52.182;21.156;2024-03-22T13:23:01;27.97;;;11.43;;
16979;SDS011;42288;52.182;21.156;2024-03-22T13:25:27;18.20;;;9.73;;
16979;SDS011;42288;52.182;21.156;2024-03-22T13:27:54;20.67;;;11.07;;
16979;SDS011;42288;52.182;21.156;2024-03-22T13:30:19;24.70;;;11.03;;
16979;SDS011;42288;52.182;21.156;2024-03-22T13:32:45;22.07;;;11.00;;
16979;SDS011;42288;52.182;21.156;2024-03-22T13:35:11;23.00;;;11.10;;
16979;SDS011;42288;52.182;21.156;2024-03-22T13:37:36;18.83;;;9.27;;
16979;SDS011;42288;52.182;21.156;2024-03-22T13:40:02;19.27;;;10.27;;
16979;SDS011;42288;52.182;21.156;2024-03-22T13:42:28;19.07;;;10.43;;
16979;SDS011;42288;52.182;21.156;2024-03-22T13:44:55;21.13;;;11.13;;
16979;SDS011;42288;52.182;21.156;2024-03-22T13:47:22;19.63;;;10.97;;
16979;SDS011;42288;52.182;21.156;2024-03-22T13:49:47;19.00;;;9.57;;
16979;SDS011;42288;52.182;21.156;2024-03-22T13:52:13;28.00;;;11.23;;
16979;SDS011;42288;52.182;21.156;2024-03-22T13:54:39;22.97;;;11.63;;
16979;SDS011;42288;52.182;21.156;2024-03-22T13:57:05;18.43;;;10.20;;
16979;SDS011;42288;52.182;21.156;2024-03-22T13:59:30;24.20;;;10.70;;
16979;SDS011;42288;52.182;21.156;2024-03-22T14:01:56;18.10;;;9.83;;